METAR Data
IDs: Format: Raw Decoded Include TAF

Data at: 0315 UTC 24 Jun 2021

KBFF 240253Z AUTO 16006KT 10SM CLR 28/09 A2985 RMK AO2 SLP054 T02780094 53007